createdAt,value
2018-05-15T10:13:17.093Z,23.97
2018-05-15T10:14:17.114Z,24.00
2018-05-15T10:16:11.698Z,24.31
2018-05-15T10:17:11.632Z,24.49
2018-05-15T10:19:04.755Z,24.54
2018-05-15T10:20:04.847Z,24.54
2018-05-15T10:21:58.048Z,24.42
2018-05-15T10:22:57.957Z,24.50
2018-05-15T10:24:51.078Z,24.59
2018-05-15T10:25:50.995Z,24.73
2018-05-15T10:27:44.167Z,24.90
2018-05-15T10:28:44.078Z,24.98
2018-05-15T10:30:38.750Z,24.94
2018-05-15T10:31:38.684Z,25.02
2018-05-15T10:33:31.807Z,25.02
2018-05-15T10:34:31.777Z,25.00
2018-05-15T10:36:25.039Z,25.07
2018-05-15T10:37:24.996Z,25.05
2018-05-15T10:39:18.084Z,24.98
2018-05-15T10:40:18.012Z,24.88
2018-05-15T10:42:11.135Z,24.90
2018-05-15T10:43:11.064Z,24.95
2018-05-15T10:45:05.757Z,24.92
2018-05-15T10:46:05.703Z,24.90
2018-05-15T10:47:58.848Z,24.71
2018-05-15T10:48:58.767Z,24.77
2018-05-15T10:50:52.054Z,24.83
2018-05-15T10:51:51.867Z,24.90
2018-05-15T10:53:45.175Z,24.83
2018-05-15T10:54:46.263Z,24.85
2018-05-15T10:56:38.149Z,24.61
2018-05-15T10:57:38.111Z,24.59
2018-05-15T10:59:32.785Z,24.71
2018-05-15T11:00:32.661Z,24.71
2018-05-15T11:02:25.766Z,24.97
2018-05-15T11:03:25.703Z,24.90
2018-05-15T11:05:19.202Z,24.69
2018-05-15T11:06:18.863Z,24.42
2018-05-15T11:08:12.010Z,24.38
2018-05-15T11:09:11.915Z,24.39
2018-05-15T11:11:05.022Z,24.45
2018-05-15T11:12:04.945Z,24.39
2018-05-15T11:13:58.145Z,24.63
2018-05-15T11:14:58.051Z,24.60
2018-05-15T11:16:51.163Z,24.54
2018-05-15T11:17:51.068Z,24.45
2018-05-15T11:19:45.739Z,24.45
2018-05-15T11:20:45.647Z,24.27
2018-05-15T11:22:38.780Z,24.05
2018-05-15T11:23:38.721Z,24.14
2018-05-15T11:25:31.916Z,24.45
2018-05-15T11:26:31.795Z,24.49
2018-05-15T11:28:24.969Z,24.54
2018-05-15T11:29:24.851Z,24.59
2018-05-15T11:31:18.014Z,24.69
2018-05-15T11:32:17.908Z,24.57
2018-05-15T11:34:11.118Z,24.41
2018-05-15T11:35:11.005Z,24.38
2018-05-15T11:36:11.002Z,24.29
2018-05-15T11:37:10.997Z,24.39
2018-05-15T11:38:10.962Z,24.39
2018-05-15T11:39:10.950Z,24.42
2018-05-15T11:40:10.944Z,24.41
2018-05-15T11:41:10.940Z,24.42
2018-05-15T11:42:10.934Z,24.34
2018-05-15T11:43:10.920Z,24.39
2018-05-15T11:44:10.907Z,24.38
2018-05-15T11:45:10.889Z,24.37
2018-05-15T11:46:10.891Z,24.37
2018-05-15T11:47:10.896Z,24.45
2018-05-15T11:48:11.373Z,24.27
2018-05-15T11:49:11.384Z,24.32
2018-05-15T11:50:11.453Z,24.35
2018-05-15T11:51:11.419Z,24.41
2018-05-15T11:52:11.569Z,24.50
2018-05-15T11:53:11.716Z,24.41
2018-05-15T11:54:10.815Z,24.45
2018-05-15T11:55:10.822Z,24.41
2018-05-15T11:56:10.817Z,24.35
2018-05-15T11:57:10.813Z,24.32
2018-05-15T11:58:10.917Z,24.29
2018-05-15T11:59:10.793Z,24.34
2018-05-15T12:00:10.896Z,24.34
2018-05-15T12:01:10.772Z,24.22
2018-05-15T12:02:10.791Z,24.37
2018-05-15T12:03:10.751Z,24.34
2018-05-15T12:04:10.846Z,24.41
2018-05-15T12:05:10.750Z,24.42
2018-05-15T12:06:10.740Z,24.42
2018-05-15T12:07:10.726Z,24.41
2018-05-15T12:08:10.793Z,24.60
2018-05-15T12:09:10.720Z,24.57
2018-05-15T12:10:10.714Z,24.60
2018-05-15T12:11:10.692Z,24.54
2018-05-15T12:12:10.682Z,24.61
2018-05-15T12:13:10.691Z,24.52
2018-05-15T12:14:11.054Z,24.45
2018-05-15T12:15:10.894Z,24.54
2018-05-15T12:16:10.701Z,24.56
2018-05-15T12:17:10.662Z,24.53
2018-05-15T12:18:10.642Z,24.44
2018-05-15T12:19:10.638Z,24.39
2018-05-15T12:20:10.623Z,24.53
2018-05-15T12:21:10.677Z,24.61
2018-05-15T12:22:10.595Z,24.68
2018-05-15T12:23:10.613Z,24.77
2018-05-15T12:24:10.578Z,24.77
2018-05-15T12:25:10.563Z,24.80
2018-05-15T12:26:10.550Z,24.82
2018-05-15T12:27:10.552Z,24.79
2018-05-15T12:28:10.546Z,24.79
2018-05-15T12:29:10.591Z,24.80
2018-05-15T12:30:10.560Z,24.75
2018-05-15T12:31:10.520Z,24.60
2018-05-15T12:32:10.517Z,24.42
2018-05-15T12:33:10.517Z,24.39
2018-05-15T12:34:10.507Z,24.27
2018-05-15T12:35:10.500Z,24.37
2018-05-15T12:36:10.515Z,24.26
2018-05-15T12:37:10.486Z,24.17
2018-05-15T12:38:10.451Z,24.23
2018-05-15T12:39:10.470Z,24.22
2018-05-15T12:40:10.442Z,24.20
2018-05-15T12:41:10.539Z,24.02
2018-05-15T12:42:10.805Z,24.01
2018-05-15T12:43:10.515Z,23.98
2018-05-15T12:44:10.416Z,24.02
2018-05-15T12:45:10.448Z,24.22
2018-05-15T12:46:10.398Z,24.34
2018-05-15T12:47:10.373Z,24.35
2018-05-15T12:48:10.427Z,24.29
2018-05-15T12:49:10.558Z,24.42
2018-05-15T12:50:10.389Z,24.38
2018-05-15T12:51:10.384Z,24.47
2018-05-15T12:52:10.412Z,24.47
2018-05-15T12:53:10.331Z,24.42
2018-05-15T12:54:10.361Z,24.47
2018-05-15T12:55:10.419Z,24.63
2018-05-15T12:56:10.316Z,24.73
2018-05-15T12:57:10.309Z,24.57
2018-05-15T12:58:10.299Z,24.38
2018-05-15T12:59:10.283Z,24.44
2018-05-15T13:00:10.310Z,24.47
2018-05-15T13:01:10.283Z,24.42
2018-05-15T13:02:10.264Z,24.42
2018-05-15T13:03:10.246Z,24.54
2018-05-15T13:04:10.220Z,24.59
2018-05-15T13:05:10.216Z,24.67
2018-05-15T13:06:10.233Z,24.79
2018-05-15T13:07:10.216Z,24.79
2018-05-15T13:08:10.231Z,24.77
2018-05-15T13:09:10.174Z,24.79
2018-05-15T13:10:10.199Z,24.71
2018-05-15T13:11:10.174Z,24.76
2018-05-15T13:12:10.188Z,24.75
2018-05-15T13:13:10.158Z,24.63
2018-05-15T13:14:10.168Z,24.53
2018-05-15T13:15:10.142Z,24.57
2018-05-15T13:16:10.140Z,24.68
2018-05-15T13:17:10.108Z,24.77
2018-05-15T13:18:10.111Z,24.77
2018-05-15T13:19:10.157Z,24.77
2018-05-15T13:20:10.088Z,24.82
2018-05-15T13:21:10.071Z,24.79
2018-05-15T13:22:10.054Z,24.77
2018-05-15T13:23:10.038Z,24.76
2018-05-15T13:24:10.050Z,24.87
2018-05-15T13:25:10.027Z,24.77
2018-05-15T13:26:10.036Z,24.73
2018-05-15T13:27:10.023Z,24.82
2018-05-15T13:28:10.003Z,24.90
2018-05-15T13:29:09.992Z,24.88
2018-05-15T13:30:10.006Z,25.00
2018-05-15T13:31:09.995Z,24.98
2018-05-15T13:32:09.971Z,24.95
2018-05-15T13:33:09.993Z,25.00
2018-05-15T13:34:09.987Z,25.07
2018-05-15T13:35:09.931Z,24.91
2018-05-15T13:36:09.947Z,24.77
2018-05-15T13:37:09.949Z,24.59
2018-05-15T13:38:09.933Z,24.71
2018-05-15T13:39:09.902Z,24.85
2018-05-15T13:40:09.938Z,24.88
2018-05-15T13:41:09.936Z,24.90
2018-05-15T13:42:09.897Z,24.92
2018-05-15T13:43:09.884Z,24.97
2018-05-15T13:44:09.923Z,24.91
2018-05-15T13:45:09.863Z,24.95
2018-05-15T13:46:09.847Z,25.02
2018-05-15T13:47:09.844Z,25.05
2018-05-15T13:48:09.851Z,25.05
2018-05-15T13:49:09.843Z,25.16
2018-05-15T13:50:09.813Z,25.32
2018-05-15T13:51:09.828Z,25.32
2018-05-15T13:52:09.831Z,25.28
2018-05-15T13:53:09.835Z,25.35
2018-05-15T13:54:09.819Z,25.10
2018-05-15T13:55:09.794Z,25.06
2018-05-15T13:56:09.761Z,25.05
2018-05-15T13:57:09.760Z,25.12
2018-05-15T13:58:09.762Z,25.15
2018-05-15T13:59:09.780Z,25.35
2018-05-15T14:00:09.731Z,25.35
2018-05-15T14:01:09.738Z,25.31
2018-05-15T14:02:09.692Z,25.38
2018-05-15T14:03:09.701Z,25.35
2018-05-15T14:04:09.713Z,25.31
2018-05-15T14:05:09.688Z,25.01
2018-05-15T14:06:09.681Z,24.69
2018-05-15T14:07:09.684Z,24.71
2018-05-15T14:08:09.664Z,24.77
2018-05-15T14:09:09.716Z,24.73
2018-05-15T14:10:09.651Z,24.73
2018-05-15T14:11:09.643Z,24.57
2018-05-15T14:12:09.637Z,24.68
2018-05-15T14:13:09.619Z,24.75
2018-05-15T14:14:09.628Z,24.85
2018-05-15T14:15:09.601Z,24.92
2018-05-15T14:16:09.596Z,25.09
2018-05-15T14:17:09.596Z,25.06
2018-05-15T14:18:09.583Z,25.15
2018-05-15T14:19:09.677Z,25.25
2018-05-15T14:20:09.599Z,25.38
2018-05-15T14:21:09.556Z,25.25
2018-05-15T14:22:09.563Z,25.16
2018-05-15T14:23:09.559Z,25.24
2018-05-15T14:24:09.537Z,25.31
2018-05-15T14:25:09.521Z,25.38
2018-05-15T14:26:09.531Z,25.31
2018-05-15T14:27:09.489Z,25.38
2018-05-15T14:28:09.577Z,25.32
2018-05-15T14:29:09.490Z,25.31
2018-05-15T14:30:09.508Z,25.24
2018-05-15T14:31:09.476Z,25.16
2018-05-15T14:32:09.472Z,25.15
2018-05-15T14:33:09.459Z,24.85
2018-05-15T14:34:09.456Z,24.53
2018-05-15T14:35:09.462Z,24.61
2018-05-15T14:36:09.449Z,24.54
2018-05-15T14:37:09.422Z,24.42
2018-05-15T14:38:09.408Z,24.67
2018-05-15T14:39:09.409Z,24.59
2018-05-15T14:40:09.437Z,24.49
2018-05-15T14:41:09.386Z,24.42
2018-05-15T14:42:09.387Z,24.44
2018-05-15T14:43:09.416Z,24.45
2018-05-15T14:44:09.354Z,24.57
2018-05-15T14:45:09.332Z,24.71
2018-05-15T14:46:09.337Z,24.85
2018-05-15T14:47:09.349Z,24.83
2018-05-15T14:48:09.341Z,25.05
2018-05-15T14:49:09.317Z,25.07
2018-05-15T14:50:09.322Z,25.17
2018-05-15T14:51:09.297Z,25.24
2018-05-15T14:52:09.304Z,25.34
2018-05-15T14:53:09.298Z,25.09
2018-05-15T14:54:09.287Z,25.07
2018-05-15T14:55:09.294Z,24.95
2018-05-15T14:56:09.269Z,24.95
2018-05-15T14:57:09.253Z,25.06
2018-05-15T14:58:09.231Z,25.16
2018-05-15T14:59:09.491Z,25.22
2018-05-15T15:00:09.250Z,25.20
2018-05-15T15:01:09.221Z,25.32
2018-05-15T15:02:09.210Z,25.35
2018-05-15T15:03:09.216Z,25.52
2018-05-15T15:04:09.236Z,25.39
2018-05-15T15:05:09.196Z,25.42
2018-05-15T15:06:09.149Z,25.44
2018-05-15T15:07:09.164Z,25.42
2018-05-15T15:08:09.168Z,25.56
2018-05-15T15:09:09.160Z,25.39
2018-05-15T15:10:09.144Z,25.44
2018-05-15T15:11:09.135Z,25.46
2018-05-15T15:12:09.115Z,25.10
2018-05-15T15:13:09.117Z,24.73
2018-05-15T15:14:09.115Z,24.45
2018-05-15T15:15:09.102Z,24.35
2018-05-15T15:16:09.123Z,24.32
2018-05-15T15:17:09.116Z,24.35
2018-05-15T15:18:09.097Z,24.42
2018-05-15T15:19:09.087Z,24.42
2018-05-15T15:20:09.090Z,24.45
2018-05-15T15:21:09.029Z,24.57
2018-05-15T15:22:09.052Z,24.45
2018-05-15T15:23:09.052Z,24.54
2018-05-15T15:24:09.029Z,24.56
2018-05-15T15:25:09.037Z,24.75
2018-05-15T15:26:09.026Z,24.75
2018-05-15T15:27:08.992Z,24.63
2018-05-15T15:28:09.025Z,24.44
2018-05-15T15:29:09.049Z,24.35
2018-05-15T15:30:08.973Z,24.38
2018-05-15T15:31:09.004Z,24.35
2018-05-15T15:32:08.970Z,24.31
2018-05-15T15:33:08.946Z,24.29
2018-05-15T15:34:08.923Z,24.38
2018-05-15T15:35:09.013Z,24.60
2018-05-15T15:36:08.932Z,24.76
2018-05-15T15:37:08.932Z,24.75
2018-05-15T15:38:08.929Z,25.01
2018-05-15T15:39:08.876Z,25.05
2018-05-15T15:40:08.940Z,25.22
2018-05-15T15:41:08.876Z,25.24
2018-05-15T15:42:08.835Z,25.01
2018-05-15T15:43:08.827Z,25.13
2018-05-15T15:44:08.844Z,25.12
2018-05-15T15:45:08.885Z,25.16
2018-05-15T15:46:08.845Z,25.07
2018-05-15T15:47:08.794Z,25.12
2018-05-15T15:48:08.817Z,24.85
2018-05-15T15:49:08.769Z,24.75
2018-05-15T15:50:08.755Z,24.73
2018-05-15T15:51:08.778Z,24.68
2018-05-15T15:52:08.743Z,24.71
2018-05-15T15:53:08.734Z,24.76
2018-05-15T15:54:08.753Z,24.85
2018-05-15T15:55:08.717Z,24.75
2018-05-15T15:56:08.726Z,24.75
2018-05-15T15:57:08.702Z,24.68
2018-05-15T15:58:08.692Z,24.71
2018-05-15T15:59:08.680Z,24.63
2018-05-15T16:00:08.685Z,24.75
2018-05-15T16:01:08.672Z,24.75
2018-05-15T16:02:08.655Z,24.80
2018-05-15T16:03:08.668Z,24.75
2018-05-15T16:04:08.758Z,24.71
2018-05-15T16:05:08.667Z,24.67
2018-05-15T16:06:08.723Z,24.59
2018-05-15T16:07:08.610Z,24.59
2018-05-15T16:08:08.597Z,24.75
2018-05-15T16:09:08.659Z,24.87
2018-05-15T16:10:08.693Z,24.85
2018-05-15T16:11:08.578Z,24.88
2018-05-15T16:12:08.583Z,24.88
2018-05-15T16:13:08.566Z,24.92
2018-05-15T16:14:08.568Z,24.85
2018-05-15T16:15:08.569Z,24.87
2018-05-15T16:16:08.573Z,24.71
2018-05-15T16:17:08.550Z,24.75
2018-05-15T16:18:08.525Z,24.73
2018-05-15T16:19:08.507Z,24.57
2018-05-15T16:20:08.497Z,24.41
2018-05-15T16:21:08.503Z,24.41
2018-05-15T16:22:08.568Z,24.50
2018-05-15T16:23:08.503Z,24.53
2018-05-15T16:24:08.478Z,24.45
2018-05-15T16:25:08.472Z,24.44
2018-05-15T16:26:08.450Z,24.39
2018-05-15T16:27:08.438Z,24.44
2018-05-15T16:28:08.428Z,24.34
2018-05-15T16:29:08.427Z,24.34
2018-05-15T16:30:08.422Z,24.29
2018-05-15T16:31:08.487Z,24.29
2018-05-15T16:32:08.415Z,24.31
2018-05-15T16:33:08.391Z,24.37
2018-05-15T16:34:08.421Z,24.34
2018-05-15T16:35:08.373Z,24.34
2018-05-15T16:36:08.362Z,24.22
2018-05-15T16:37:08.364Z,24.38
2018-05-15T16:38:08.360Z,24.24
2018-05-15T16:39:08.367Z,24.16
2018-05-15T16:40:08.340Z,24.07
2018-05-15T16:41:08.329Z,24.07
2018-05-15T16:42:08.349Z,24.17
2018-05-15T16:43:08.306Z,24.19
2018-05-15T16:44:08.309Z,24.12
2018-05-15T16:45:08.303Z,24.02
2018-05-15T16:46:08.313Z,24.01
2018-05-15T16:47:08.276Z,23.95
2018-05-15T16:48:08.289Z,24.04
2018-05-15T16:49:08.243Z,24.12
2018-05-15T16:50:08.262Z,24.10
2018-05-15T16:51:08.248Z,24.13
2018-05-15T16:52:08.266Z,24.10
2018-05-15T16:53:08.267Z,24.00
2018-05-15T16:54:08.227Z,23.90
2018-05-15T16:55:08.204Z,24.14
2018-05-15T16:56:08.191Z,24.02
2018-05-15T16:57:08.192Z,24.00
2018-05-15T16:58:08.197Z,24.00
2018-05-15T16:59:08.217Z,23.94
2018-05-15T17:00:08.178Z,23.89
2018-05-15T17:01:08.166Z,24.00
2018-05-15T17:02:08.143Z,23.95
2018-05-15T17:03:08.144Z,24.07
2018-05-15T17:04:08.131Z,24.04
2018-05-15T17:05:08.114Z,24.04
2018-05-15T17:06:08.214Z,24.13
2018-05-15T17:07:08.108Z,24.13
2018-05-15T17:08:08.221Z,24.12
2018-05-15T17:09:08.085Z,24.01
2018-05-15T17:10:08.062Z,24.02
2018-05-15T17:11:08.071Z,24.00
2018-05-15T17:12:08.091Z,23.98
2018-05-15T17:13:08.149Z,24.01
2018-05-15T17:14:08.039Z,23.98
2018-05-15T17:15:08.032Z,24.00
2018-05-15T17:16:08.059Z,24.01
2018-05-15T17:17:08.020Z,23.97
2018-05-15T17:18:07.977Z,23.95
2018-05-15T17:19:07.977Z,23.86
2018-05-15T17:20:08.003Z,23.71
2018-05-15T17:21:07.992Z,23.70
2018-05-15T17:22:07.948Z,23.86
2018-05-15T17:23:07.959Z,23.98
2018-05-15T17:24:08.001Z,24.04
2018-05-15T17:25:07.945Z,23.86
2018-05-15T17:26:07.941Z,24.01
2018-05-15T17:27:07.905Z,23.97
2018-05-15T17:28:07.927Z,24.01
2018-05-15T17:29:07.882Z,24.00
2018-05-15T17:30:07.893Z,24.08
2018-05-15T17:31:07.936Z,24.07
2018-05-15T17:32:07.859Z,24.08
2018-05-15T17:33:07.879Z,24.07
2018-05-15T17:34:07.875Z,24.17
2018-05-15T17:35:07.872Z,24.20
2018-05-15T17:36:07.891Z,24.14
2018-05-15T17:37:07.845Z,24.08
2018-05-15T17:38:07.840Z,24.07
2018-05-15T17:39:07.851Z,24.12
2018-05-15T17:40:07.846Z,24.05
2018-05-15T17:41:07.825Z,24.04
2018-05-15T17:42:07.814Z,24.04
2018-05-15T17:43:07.812Z,23.95
2018-05-15T17:44:07.772Z,24.00
2018-05-15T17:45:07.783Z,24.05
2018-05-15T17:46:07.778Z,24.14
2018-05-15T17:47:07.748Z,24.20
2018-05-15T17:48:07.769Z,24.14
2018-05-15T17:49:07.776Z,24.16
2018-05-15T17:50:07.737Z,24.14
2018-05-15T17:51:07.725Z,24.14
2018-05-15T17:52:07.700Z,24.20
2018-05-15T17:53:07.774Z,24.07
2018-05-15T17:54:07.705Z,24.04
2018-05-15T17:55:07.671Z,23.95
2018-05-15T17:56:07.721Z,24.01
2018-05-15T17:57:07.670Z,23.92
2018-05-15T17:58:07.653Z,24.02
2018-05-15T17:59:07.674Z,23.97
2018-05-15T18:00:07.669Z,23.98
2018-05-15T18:01:07.610Z,23.85
2018-05-15T18:02:07.643Z,23.80
2018-05-15T18:03:07.623Z,23.80
2018-05-15T18:04:07.600Z,23.71
2018-05-15T18:05:07.568Z,23.65
2018-05-15T18:06:07.574Z,23.70
2018-05-15T18:07:07.579Z,23.75
2018-05-15T18:08:07.598Z,23.72
2018-05-15T18:09:07.552Z,23.70
2018-05-15T18:10:07.560Z,23.70
2018-05-15T18:11:07.528Z,23.75
2018-05-15T18:12:07.521Z,23.77
2018-05-15T18:13:07.524Z,23.72
2018-05-15T18:14:07.487Z,23.64
2018-05-15T18:15:07.498Z,23.67
2018-05-15T18:16:07.456Z,23.60
2018-05-15T18:17:07.445Z,23.60
2018-05-15T18:18:07.465Z,23.53
2018-05-15T18:19:07.429Z,23.64
2018-05-15T18:20:07.432Z,23.55
2018-05-15T18:21:07.439Z,23.57
2018-05-15T18:22:07.457Z,23.50
2018-05-15T18:23:07.405Z,23.55
2018-05-15T18:24:07.410Z,23.52
2018-05-15T18:25:07.396Z,23.52
2018-05-15T18:26:07.380Z,23.50
2018-05-15T18:27:07.404Z,23.45
2018-05-15T18:28:07.396Z,23.39
2018-05-15T18:29:07.389Z,23.31
2018-05-15T18:30:07.374Z,23.35
2018-05-15T18:31:07.388Z,23.39
2018-05-15T18:32:07.313Z,23.31
2018-05-15T18:33:07.425Z,23.31
2018-05-15T18:34:07.324Z,23.32
2018-05-15T18:35:07.276Z,23.19
2018-05-15T18:36:07.308Z,23.17
2018-05-15T18:37:07.282Z,23.17
2018-05-15T18:38:07.274Z,23.17
2018-05-15T18:39:07.305Z,23.07
2018-05-15T18:40:07.255Z,23.12
2018-05-15T18:41:07.259Z,23.07
2018-05-15T18:42:07.239Z,22.99
2018-05-15T18:43:07.237Z,22.99
2018-05-15T18:44:07.225Z,23.01
2018-05-15T18:45:07.228Z,23.01
2018-05-15T18:46:07.204Z,22.89
2018-05-15T18:47:07.164Z,22.99
2018-05-15T18:48:07.167Z,22.93
2018-05-15T18:49:07.165Z,22.93
2018-05-15T18:50:07.147Z,22.94
2018-05-15T18:51:07.156Z,22.89
2018-05-15T18:52:07.113Z,22.89
2018-05-15T18:53:07.111Z,22.90
2018-05-15T18:54:07.101Z,22.89
2018-05-15T18:55:07.098Z,22.92
2018-05-15T18:56:07.158Z,22.87
2018-05-15T18:57:07.128Z,22.87
2018-05-15T18:58:07.065Z,22.93
2018-05-15T18:59:07.080Z,22.90
2018-05-15T19:00:07.065Z,22.87
2018-05-15T19:01:07.056Z,22.83
2018-05-15T19:02:07.042Z,22.86
2018-05-15T19:03:07.100Z,22.78
2018-05-15T19:04:06.997Z,22.77
2018-05-15T19:05:07.015Z,22.78
2018-05-15T19:06:07.021Z,22.75
2018-05-15T19:07:06.986Z,22.75
2018-05-15T19:08:25.658Z,22.74
2018-05-15T19:09:10.177Z,22.77
2018-05-15T19:10:06.979Z,22.74
2018-05-15T19:11:07.152Z,22.69
2018-05-15T19:12:06.939Z,22.74
2018-05-15T19:13:06.937Z,22.68
2018-05-15T19:14:06.949Z,22.57
2018-05-15T19:15:06.904Z,22.57
2018-05-15T19:16:06.944Z,22.47
2018-05-15T19:17:06.892Z,22.41
2018-05-15T19:18:06.886Z,22.43
2018-05-15T19:19:06.882Z,22.34
2018-05-15T19:20:06.873Z,22.37
2018-05-15T19:21:06.862Z,22.35
2018-05-15T19:22:06.859Z,22.29
2018-05-15T19:23:06.857Z,22.19
2018-05-15T19:24:06.810Z,22.20
2018-05-15T19:25:06.792Z,22.14
2018-05-15T19:26:06.803Z,22.19
2018-05-15T19:27:06.807Z,22.17
2018-05-15T19:28:06.775Z,22.17
2018-05-15T19:29:06.782Z,22.14
2018-05-15T19:30:06.768Z,22.10
2018-05-15T19:31:06.752Z,22.09
2018-05-15T19:32:06.763Z,22.06
2018-05-15T19:33:06.755Z,22.02
2018-05-15T19:34:06.730Z,22.07
2018-05-15T19:35:06.736Z,22.07
2018-05-15T19:36:06.738Z,22.02
2018-05-15T19:37:06.697Z,21.94
2018-05-15T19:38:06.680Z,21.94
2018-05-15T19:39:06.680Z,21.97
2018-05-15T19:40:06.667Z,21.95
2018-05-15T19:41:06.660Z,21.98
2018-05-15T19:42:06.658Z,21.91
2018-05-15T19:43:06.630Z,21.99
2018-05-15T19:44:06.669Z,21.94
2018-05-15T19:45:06.593Z,21.90
2018-05-15T19:46:06.589Z,21.83
2018-05-15T19:47:06.575Z,21.81
2018-05-15T19:48:06.586Z,21.83
2018-05-15T19:49:06.559Z,21.79
2018-05-15T19:50:06.557Z,21.79
2018-05-15T19:51:06.591Z,21.78
2018-05-15T19:52:06.551Z,21.74
2018-05-15T19:53:06.526Z,21.78
2018-05-15T19:54:06.503Z,21.75
2018-05-15T19:55:06.496Z,21.67
2018-05-15T19:56:06.516Z,21.71
2018-05-15T19:57:06.493Z,21.74
2018-05-15T19:58:06.444Z,21.63
2018-05-15T19:59:06.450Z,21.61
2018-05-15T20:00:06.451Z,21.57
2018-05-15T20:01:06.443Z,21.64
2018-05-15T20:02:06.413Z,21.61
2018-05-15T20:03:06.478Z,21.51
2018-05-15T20:04:06.443Z,21.56
2018-05-15T20:05:06.417Z,21.53
2018-05-15T20:06:06.357Z,21.51
2018-05-15T20:07:06.345Z,21.59
2018-05-15T20:08:06.362Z,21.60
2018-05-15T20:09:06.432Z,21.54
2018-05-15T20:10:06.376Z,21.46
2018-05-15T20:11:06.362Z,21.56
2018-05-15T20:12:06.313Z,21.51
2018-05-15T20:13:06.322Z,21.51
2018-05-15T20:14:06.324Z,21.61
2018-05-15T20:15:06.292Z,21.56
2018-05-15T20:16:06.351Z,21.53
2018-05-15T20:17:06.260Z,21.48
2018-05-15T20:18:06.265Z,21.44
2018-05-15T20:19:06.234Z,21.38
2018-05-15T20:20:06.252Z,21.27
2018-05-15T20:21:06.245Z,21.36
2018-05-15T20:22:06.200Z,21.34
2018-05-15T20:23:06.159Z,21.23
2018-05-15T20:24:06.147Z,21.24
2018-05-15T20:25:06.139Z,21.24
2018-05-15T20:26:06.172Z,21.21
2018-05-15T20:27:06.127Z,21.16
2018-05-15T20:28:06.132Z,21.17
2018-05-15T20:29:06.155Z,21.26
2018-05-15T20:30:06.142Z,21.13
2018-05-15T20:31:06.187Z,21.20
2018-05-15T20:32:06.057Z,21.21
2018-05-15T20:33:06.071Z,21.14
2018-05-15T20:34:06.167Z,21.19
2018-05-15T20:35:06.087Z,21.16
2018-05-15T20:36:06.067Z,21.06
2018-05-15T20:37:06.062Z,21.04
2018-05-15T20:38:06.015Z,21.04
2018-05-15T20:39:05.991Z,21.06
2018-05-15T20:40:06.055Z,21.05
2018-05-15T20:41:06.577Z,20.99
2018-05-15T20:42:05.992Z,21.02
2018-05-15T20:43:05.964Z,20.95
2018-05-15T20:44:05.920Z,21.02
2018-05-15T20:45:05.930Z,20.95
2018-05-15T20:46:05.910Z,20.95
2018-05-15T20:47:05.877Z,20.95
2018-05-15T20:48:05.879Z,20.90
2018-05-15T20:49:05.874Z,20.99
2018-05-15T20:50:05.848Z,20.98
2018-05-15T20:51:05.852Z,20.93
2018-05-15T20:52:05.851Z,20.90
2018-05-15T20:53:05.803Z,21.01
2018-05-15T20:54:05.793Z,20.90
2018-05-15T20:55:05.785Z,20.93
2018-05-15T20:56:05.786Z,20.96
2018-05-15T20:57:05.753Z,20.91
2018-05-15T20:58:05.817Z,20.96
2018-05-15T20:59:05.773Z,20.93
2018-05-15T21:00:05.738Z,20.95
2018-05-15T21:01:05.747Z,20.90
2018-05-15T21:02:05.718Z,20.91
2018-05-15T21:03:05.691Z,20.91
2018-05-15T21:04:05.718Z,20.87
2018-05-15T21:05:05.668Z,20.86
2018-05-15T21:06:05.653Z,20.83
2018-05-15T21:07:05.653Z,20.89
2018-05-15T21:08:05.681Z,20.80
2018-05-15T21:09:05.619Z,20.79
2018-05-15T21:10:05.632Z,20.86
2018-05-15T21:11:05.599Z,20.87
2018-05-15T21:12:05.582Z,20.80
2018-05-15T21:13:05.578Z,20.83
2018-05-15T21:14:05.569Z,20.79
2018-05-15T21:15:05.612Z,20.79
2018-05-15T21:16:05.544Z,20.76
2018-05-15T21:17:05.588Z,20.84
2018-05-15T21:18:05.545Z,20.77
2018-05-15T21:19:05.526Z,20.74
2018-05-15T21:20:05.634Z,20.77
2018-05-15T21:21:05.518Z,20.74
2018-05-15T21:22:05.535Z,20.76
2018-05-15T21:23:05.491Z,20.71
2018-05-15T21:24:05.469Z,20.69
2018-05-15T21:25:05.439Z,20.61
2018-05-15T21:26:05.450Z,20.61
2018-05-15T21:27:05.416Z,20.62
2018-05-15T21:28:05.402Z,20.65
2018-05-15T21:29:05.407Z,20.61
2018-05-15T21:30:05.511Z,20.54
2018-05-15T21:31:05.375Z,20.53
2018-05-15T21:32:05.550Z,20.59
2018-05-15T21:33:05.334Z,20.56
2018-05-15T21:34:05.333Z,20.62
2018-05-15T21:35:05.328Z,20.49
2018-05-15T21:36:05.347Z,20.43
2018-05-15T21:37:05.299Z,20.46
2018-05-15T21:38:05.300Z,20.51
2018-05-15T21:39:05.319Z,20.46
2018-05-15T21:40:05.270Z,20.47
2018-05-15T21:41:05.282Z,20.43
2018-05-15T21:42:05.272Z,20.35
2018-05-15T21:43:05.239Z,20.33
2018-05-15T21:44:05.222Z,20.35
2018-05-15T21:45:05.207Z,20.28
2018-05-15T21:46:05.215Z,20.33
2018-05-15T21:47:05.218Z,20.27
2018-05-15T21:48:05.223Z,20.33
2018-05-15T21:49:05.175Z,20.38
2018-05-15T21:50:05.145Z,20.41
2018-05-15T21:51:05.142Z,20.35
2018-05-15T21:52:05.123Z,20.30
2018-05-15T21:53:05.134Z,20.33
2018-05-15T21:54:05.094Z,20.31
2018-05-15T21:55:05.103Z,20.31
2018-05-15T21:56:05.081Z,20.38
2018-05-15T21:57:05.068Z,20.28
2018-05-15T21:58:05.048Z,20.27
2018-05-15T21:59:05.059Z,20.28
2018-05-15T22:00:05.024Z,20.23
2018-05-15T22:01:05.096Z,20.25
2018-05-15T22:02:05.002Z,20.20
2018-05-15T22:03:04.992Z,20.23
2018-05-15T22:04:04.986Z,20.20
2018-05-15T22:05:04.994Z,20.23
2018-05-15T22:06:04.980Z,20.16
2018-05-15T22:07:04.945Z,20.24
2018-05-15T22:08:04.932Z,20.20
2018-05-15T22:09:04.922Z,20.16
2018-05-15T22:10:04.920Z,20.13
2018-05-15T22:11:04.897Z,20.16
2018-05-15T22:12:04.882Z,20.13
2018-05-15T22:13:04.870Z,20.15
2018-05-15T22:14:04.856Z,20.03
2018-05-15T22:15:04.847Z,20.02
2018-05-15T22:16:04.830Z,20.12
2018-05-15T22:17:04.813Z,20.15
2018-05-15T22:18:04.817Z,20.18
2018-05-15T22:19:04.827Z,20.13
2018-05-15T22:20:04.783Z,20.23
2018-05-15T22:21:04.772Z,20.25
2018-05-15T22:22:04.763Z,20.24
2018-05-15T22:23:04.748Z,20.21
2018-05-15T22:24:04.778Z,20.20
2018-05-15T22:25:04.727Z,20.13
2018-05-15T22:26:04.715Z,20.12
2018-05-15T22:27:04.702Z,20.06
2018-05-15T22:28:04.692Z,20.05
2018-05-15T22:29:04.675Z,20.03
2018-05-15T22:30:04.676Z,20.03
2018-05-15T22:31:04.652Z,20.03
2018-05-15T22:32:04.649Z,19.94
2018-05-15T22:33:04.636Z,19.94
2018-05-15T22:34:04.615Z,19.86
2018-05-15T22:35:04.608Z,19.97
2018-05-15T22:36:04.596Z,19.98
2018-05-15T22:37:04.585Z,20.00
2018-05-15T22:38:04.570Z,19.94
2018-05-15T22:39:04.572Z,19.80
2018-05-15T22:40:04.558Z,19.88
2018-05-15T22:41:04.526Z,19.90
2018-05-15T22:42:04.522Z,19.88
2018-05-15T22:43:04.577Z,19.90
2018-05-15T22:44:04.493Z,19.80
2018-05-15T22:45:04.544Z,19.83
2018-05-15T22:46:04.491Z,19.80
2018-05-15T22:47:04.506Z,19.78
2018-05-15T22:48:04.459Z,19.80
2018-05-15T22:49:04.433Z,19.73
2018-05-15T22:50:04.487Z,19.70
2018-05-15T22:51:04.417Z,19.73
2018-05-15T22:52:04.395Z,19.68
2018-05-15T22:53:04.391Z,19.66
2018-05-15T22:54:04.394Z,19.68
2018-05-15T22:55:04.402Z,19.70
2018-05-15T22:56:04.359Z,19.76
2018-05-15T22:57:04.342Z,19.69
2018-05-15T22:58:04.326Z,19.69
2018-05-15T22:59:04.321Z,19.73
2018-05-15T23:00:04.308Z,19.78
2018-05-15T23:01:04.291Z,19.76
2018-05-15T23:02:04.286Z,19.80
2018-05-15T23:03:04.301Z,19.76
2018-05-15T23:04:04.298Z,19.70
2018-05-15T23:05:04.280Z,19.66
2018-05-15T23:06:04.239Z,19.68
2018-05-15T23:07:04.217Z,19.63
2018-05-15T23:08:04.237Z,19.69
2018-05-15T23:09:04.186Z,19.66
2018-05-15T23:10:04.186Z,19.70
2018-05-15T23:11:04.174Z,19.63
2018-05-15T23:12:04.163Z,19.70
2018-05-15T23:13:04.149Z,19.69
2018-05-15T23:14:04.138Z,19.66
2018-05-15T23:15:04.124Z,19.70
2018-05-15T23:16:04.105Z,19.72
2018-05-15T23:17:04.108Z,19.68
2018-05-15T23:18:04.092Z,19.75
2018-05-15T23:19:04.075Z,19.76
2018-05-15T23:20:04.065Z,19.78
2018-05-15T23:21:04.054Z,19.76
2018-05-15T23:22:04.041Z,19.70
2018-05-15T23:23:04.031Z,19.73
2018-05-15T23:24:04.058Z,19.70
2018-05-15T23:25:04.006Z,19.70
2018-05-15T23:26:03.983Z,19.66
2018-05-15T23:27:03.979Z,19.66
2018-05-15T23:28:03.956Z,19.73
2018-05-15T23:29:03.958Z,19.76
2018-05-15T23:30:03.970Z,19.76